Time;durP1;ratioP1;P1;durP2;ratioP2;P2;SDS_P1;SDS_P2;PMS_P1;PMS_P2;Temp;Humidity;BMP_temperature;BMP_pressure;BME280_temperature;BME280_humidity;BME280_pressure;Samples;Min_cycle;Max_cycle;Signal;HPM_P1;HPM_P2
2023/08/11 00:00:21;;;;;;;1.25;0.95;;;;;;;17.40;56.46;100070.44;4443272;32;33678;-86
2023/08/11 00:02:51;;;;;;;0.57;0.57;;;;;;;17.36;56.55;100067.03;4438450;32;34095;-88
2023/08/11 00:05:20;;;;;;;1.05;0.60;;;;;;;17.46;56.43;100065.81;4442176;32;34752;-88
2023/08/11 00:07:50;;;;;;;1.00;0.73;;;;;;;17.52;56.02;100064.75;4450623;32;34334;-87
2023/08/11 00:10:19;;;;;;;0.47;0.47;;;;;;;17.64;55.63;100069.56;4443273;32;33290;-86
2023/08/11 00:12:48;;;;;;;1.45;1.35;;;;;;;17.54;55.71;100062.06;4437030;32;33481;-84
2023/08/11 00:15:18;;;;;;;0.50;0.50;;;;;;;17.44;56.04;100061.53;4441830;32;33583;-84
2023/08/11 00:17:47;;;;;;;2.55;0.60;;;;;;;17.13;57.12;100066.97;4443180;32;33516;-85
2023/08/11 00:20:16;;;;;;;0.40;0.40;;;;;;;17.19;56.93;100065.00;4445899;32;35198;-84
2023/08/11 00:22:45;;;;;;;0.85;0.50;;;;;;;17.21;56.86;100064.97;4444739;32;33341;-84
2023/08/11 00:25:14;;;;;;;0.47;0.47;;;;;;;17.13;57.10;100064.34;4444382;32;34197;-85
2023/08/11 00:27:43;;;;;;;0.50;0.50;;;;;;;17.35;56.34;100067.09;4444951;32;34124;-84
2023/08/11 00:30:12;;;;;;;1.40;0.70;;;;;;;17.37;56.35;100066.16;4450201;32;33715;-84
2023/08/11 00:32:43;;;;;;;1.27;0.65;;;;;;;17.27;56.51;100068.22;4444787;32;34295;-85
2023/08/11 00:35:12;;;;;;;0.60;0.60;;;;;;;17.13;57.17;100062.62;4445018;32;32496;-85
2023/08/11 00:37:40;;;;;;;0.95;0.70;;;;;;;17.05;57.50;100064.63;4442355;32;33974;-84
2023/08/11 00:40:12;;;;;;;0.50;0.50;;;;;;;17.15;57.23;100060.78;4450202;32;33560;-86
2023/08/11 00:42:41;;;;;;;0.50;0.50;;;;;;;17.17;57.22;100061.56;4444128;32;32130;-84
2023/08/11 00:45:10;;;;;;;0.60;0.60;;;;;;;17.14;57.27;100052.97;4443156;32;35961;-85
2023/08/11 00:47:42;;;;;;;0.77;0.60;;;;;;;17.18;57.21;100050.19;4439774;32;33560;-85
2023/08/11 00:50:15;;;;;;;0.88;0.77;;;;;;;17.11;57.44;100059.19;4441388;32;33535;-84
2023/08/11 00:52:45;;;;;;;1.37;0.60;;;;;;;17.04;57.69;100053.28;4445336;32;33045;-83
2023/08/11 00:55:15;;;;;;;0.50;0.50;;;;;;;17.12;57.43;100054.78;4440437;32;33574;-84
2023/08/11 00:57:43;;;;;;;0.90;0.55;;;;;;;17.03;57.64;100046.34;4443935;32;33938;-85
2023/08/11 01:00:15;;;;;;;0.60;0.60;;;;;;;16.92;58.03;100052.84;4445317;32;34059;-86
2023/08/11 01:02:46;;;;;;;0.62;0.62;;;;;;;17.04;57.79;100053.28;4448542;32;33851;-85
2023/08/11 01:05:19;;;;;;;0.80;0.80;;;;;;;17.09;57.60;100045.28;4446486;32;34972;-86
2023/08/11 01:07:58;;;;;;;0.68;0.68;;;;;;;16.85;58.07;100054.81;4446218;32;33931;-86
2023/08/11 01:10:34;;;;;;;0.55;0.55;;;;;;;16.88;58.00;100052.09;4446130;32;34532;-85
2023/08/11 01:13:09;;;;;;;0.50;0.50;;;;;;;16.94;57.85;100049.28;4446065;32;33014;-85
2023/08/11 01:15:41;;;;;;;0.82;0.82;;;;;;;17.01;57.72;100048.16;4448740;32;34574;-86
2023/08/11 01:18:10;;;;;;;;;;;;;;;16.92;57.95;100051.09;4442655;32;35988;-84
2023/08/11 01:20:42;;;;;;;0.52;0.52;;;;;;;17.06;57.52;100042.75;4441280;32;34467;-84
2023/08/11 01:23:21;;;;;;;0.50;0.50;;;;;;;17.04;57.87;100042.81;4445035;32;33163;-84
2023/08/11 01:25:50;;;;;;;0.68;0.62;;;;;;;17.01;57.87;100045.53;4443992;32;34459;-86
2023/08/11 01:28:19;;;;;;;0.55;0.55;;;;;;;17.09;57.71;100039.19;4448022;32;33703;-85
2023/08/11 01:30:48;;;;;;;0.65;0.65;;;;;;;17.15;57.48;100044.19;4445283;32;33504;-84
2023/08/11 01:33:17;;;;;;;0.50;0.50;;;;;;;17.15;57.23;100039.81;4443498;32;33312;-85
2023/08/11 01:35:46;;;;;;;0.55;0.55;;;;;;;17.24;56.94;100042.09;4444269;32;33560;-84
2023/08/11 01:38:15;;;;;;;0.62;0.57;;;;;;;17.25;56.96;100046.47;4445865;32;33681;-84
2023/08/11 01:40:45;;;;;;;0.45;0.45;;;;;;;17.20;57.33;100048.38;4449838;32;33531;-86
2023/08/11 01:43:15;;;;;;;0.68;0.68;;;;;;;17.06;57.66;100054.09;4444648;32;33004;-85
2023/08/11 01:45:44;;;;;;;0.50;0.50;;;;;;;16.99;57.98;100054.34;4443789;32;34450;-85
2023/08/11 01:48:14;;;;;;;0.40;0.40;;;;;;;17.11;57.50;100043.47;4444901;32;33557;-86
2023/08/11 01:50:43;;;;;;;1.00;0.63;;;;;;;17.02;58.04;100049.00;4449503;32;32863;-85
2023/08/11 01:53:12;;;;;;;0.50;0.50;;;;;;;17.27;56.85;100044.63;4442223;32;33041;-86
2023/08/11 01:55:41;;;;;;;0.50;0.50;;;;;;;17.12;57.21;100049.53;4441862;32;34311;-86
2023/08/11 01:58:12;;;;;;;0.50;0.50;;;;;;;16.98;57.97;100047.37;4446561;32;34818;-85
2023/08/11 02:00:40;;;;;;;0.50;0.50;;;;;;;17.18;57.06;100049.31;4448104;32;32675;-85
2023/08/11 02:03:10;;;;;;;0.60;0.60;;;;;;;17.13;57.13;100046.00;4446458;32;33942;-84
2023/08/11 02:05:38;;;;;;;1.10;0.93;;;;;;;17.15;57.46;100047.66;4443574;32;33452;-84
2023/08/11 02:08:08;;;;;;;1.98;0.98;;;;;;;16.91;57.61;100059.84;4444983;32;33597;-84
2023/08/11 02:10:37;;;;;;;5.12;0.90;;;;;;;17.12;57.21;100053.03;4444549;32;34472;-84
2023/08/11 02:13:05;;;;;;;1.45;0.50;;;;;;;17.28;56.28;100058.59;4451832;32;33336;-85
2023/08/11 02:15:36;;;;;;;0.57;0.50;;;;;;;17.19;56.93;100054.53;4439505;32;33677;-84
2023/08/11 02:18:05;;;;;;;0.70;0.70;;;;;;;17.18;57.24;100057.19;4443203;32;34007;-86
2023/08/11 02:20:34;;;;;;;0.50;0.50;;;;;;;17.16;57.44;100053.78;4438258;32;33117;-84
2023/08/11 02:23:03;;;;;;;0.65;0.65;;;;;;;16.92;58.22;100053.69;4451075;32;33697;-84
2023/08/11 02:25:33;;;;;;;1.62;0.82;;;;;;;17.02;57.86;100054.25;4443307;32;34541;-86
2023/08/11 02:28:04;;;;;;;0.50;0.50;;;;;;;17.05;57.75;100059.38;4446079;32;33534;-85
2023/08/11 02:30:33;;;;;;;0.90;0.80;;;;;;;17.05;57.82;100054.13;4442291;32;33407;-85
2023/08/11 02:33:03;;;;;;;0.50;0.50;;;;;;;16.77;58.75;100057.66;4446786;32;33111;-85
2023/08/11 02:35:33;;;;;;;0.70;0.70;;;;;;;16.69;59.53;100061.44;4449215;32;33704;-84
2023/08/11 02:38:01;;;;;;;0.52;0.52;;;;;;;17.04;58.08;100060.31;4445577;32;33559;-85
2023/08/11 02:40:30;;;;;;;1.37;0.65;;;;;;;16.93;58.08;100065.88;4441954;32;33478;-85
2023/08/11 02:42:59;;;;;;;0.85;0.82;;;;;;;17.00;58.13;100063.91;4445921;32;32903;-85
2023/08/11 02:45:28;;;;;;;0.77;0.65;;;;;;;17.03;57.89;100063.81;4450560;32;34089;-85
2023/08/11 02:47:57;;;;;;;0.55;0.55;;;;;;;17.05;57.94;100065.47;4439418;32;34047;-84
2023/08/11 02:50:27;;;;;;;0.90;0.65;;;;;;;16.98;58.28;100063.13;4443251;32;33102;-86
2023/08/11 02:52:56;;;;;;;2.33;1.00;;;;;;;16.52;59.25;100062.81;4445489;32;32825;-84
2023/08/11 02:55:25;;;;;;;0.80;0.80;;;;;;;16.79;58.57;100068.09;4444088;32;33836;-84
2023/08/11 02:57:54;;;;;;;1.65;0.85;;;;;;;16.60;59.40;100057.34;4452286;32;33577;-85
2023/08/11 03:00:23;;;;;;;0.77;0.57;;;;;;;16.82;58.55;100062.78;4446525;32;33763;-85
2023/08/11 03:02:52;;;;;;;0.70;0.70;;;;;;;16.68;59.05;100067.59;4446382;32;34211;-85
2023/08/11 03:05:21;;;;;;;0.65;0.60;;;;;;;16.72;58.83;100066.56;4446627;32;34467;-85
2023/08/11 03:07:52;;;;;;;0.50;0.50;;;;;;;16.76;58.93;100070.78;4452253;32;34633;-85
2023/08/11 03:10:21;;;;;;;2.05;0.70;;;;;;;16.86;58.17;100072.25;4446375;32;33678;-85
2023/08/11 03:12:50;;;;;;;0.60;0.60;;;;;;;16.92;57.86;100066.81;4446328;32;33063;-85
2023/08/11 03:15:19;;;;;;;0.93;0.75;;;;;;;16.85;58.34;100068.75;4446526;32;34603;-85
2023/08/11 03:17:49;;;;;;;0.60;0.60;;;;;;;16.61;59.21;100073.00;4450248;32;34788;-86
2023/08/11 03:20:18;;;;;;;0.50;0.50;;;;;;;16.43;60.15;100076.22;4446140;32;34647;-84
2023/08/11 03:22:47;;;;;;;1.08;0.77;;;;;;;16.50;59.61;100079.47;4437092;32;32963;-84
2023/08/11 03:25:17;;;;;;;1.37;0.80;;;;;;;16.57;59.62;100074.00;4444973;32;33812;-84
2023/08/11 03:27:46;;;;;;;0.47;0.47;;;;;;;16.40;60.34;100076.28;4443424;32;33588;-87
2023/08/11 03:30:16;;;;;;;1.15;0.70;;;;;;;16.54;59.83;100075.88;4449260;32;33662;-84
2023/08/11 03:32:46;;;;;;;1.10;0.90;;;;;;;16.51;59.71;100076.81;4446469;32;33122;-85
2023/08/11 03:35:17;;;;;;;0.60;0.60;;;;;;;16.43;59.71;100081.47;4442332;32;34500;-84
2023/08/11 03:37:46;;;;;;;1.12;0.93;;;;;;;16.32;60.00;100083.53;4443948;32;34488;-84
2023/08/11 03:40:20;;;;;;;0.85;0.60;;;;;;;16.45;59.49;100084.00;4449647;32;34662;-84
2023/08/11 03:42:49;;;;;;;0.60;0.60;;;;;;;16.45;59.78;100079.62;4447047;32;32936;-85
2023/08/11 03:45:18;;;;;;;1.15;0.62;;;;;;;16.54;59.62;100079.34;4443012;32;33384;-85
2023/08/11 03:47:47;;;;;;;2.17;0.90;;;;;;;16.38;60.03;100088.56;4444136;32;33681;-85
2023/08/11 03:50:16;;;;;;;0.75;0.75;;;;;;;16.39;59.98;100085.06;4441431;32;33326;-84
2023/08/11 03:52:46;;;;;;;0.68;0.68;;;;;;;16.18;60.68;100081.31;4446942;32;33733;-84
2023/08/11 03:55:14;;;;;;;0.65;0.65;;;;;;;16.31;60.35;100093.16;4443898;32;33926;-84
2023/08/11 03:57:45;;;;;;;1.52;1.12;;;;;;;16.36;60.06;100091.25;4443396;32;33901;-84
2023/08/11 04:00:15;;;;;;;1.08;0.95;;;;;;;16.21;61.12;100092.59;4431825;32;33515;-84
2023/08/11 04:02:47;;;;;;;0.80;0.80;;;;;;;16.27;60.51;100096.75;4444634;32;32485;-85
2023/08/11 04:05:17;;;;;;;0.62;0.62;;;;;;;16.18;61.10;100090.03;4442445;32;33122;-84
2023/08/11 04:07:46;;;;;;;0.60;0.60;;;;;;;16.03;61.25;100103.59;4443623;32;34829;-84
2023/08/11 04:10:16;;;;;;;0.82;0.80;;;;;;;16.14;60.98;100101.53;4444579;32;33432;-85
2023/08/11 04:12:46;;;;;;;1.17;1.08;;;;;;;15.93;61.52;100102.13;4445837;32;34266;-85
2023/08/11 04:15:15;;;;;;;1.53;0.90;;;;;;;15.88;61.25;100101.41;4451159;32;33006;-84
2023/08/11 04:17:44;;;;;;;0.68;0.60;;;;;;;15.94;61.41;100107.31;4440937;32;34430;-85
2023/08/11 04:20:13;;;;;;;0.60;0.60;;;;;;;15.78;61.44;100101.66;4432149;32;34025;-84
2023/08/11 04:22:43;;;;;;;0.70;0.70;;;;;;;16.11;60.25;100112.06;4440631;32;33046;-84
2023/08/11 04:25:13;;;;;;;1.37;0.98;;;;;;;16.10;60.18;100110.34;4448941;32;34378;-85
2023/08/11 04:27:47;;;;;;;1.02;0.90;;;;;;;15.97;61.02;100115.09;4442407;32;33607;-86
2023/08/11 04:30:16;;;;;;;0.60;0.60;;;;;;;16.18;60.50;100115.34;4440541;32;33443;-84
2023/08/11 04:32:48;;;;;;;1.23;0.80;;;;;;;16.26;60.45;100115.13;4437952;32;32678;-85
2023/08/11 04:35:17;;;;;;;0.70;0.70;;;;;;;16.07;61.03;100113.06;4442493;32;34309;-85
2023/08/11 04:37:46;;;;;;;0.68;0.68;;;;;;;16.17;61.00;100111.03;4452047;32;34486;-85
2023/08/11 04:40:16;;;;;;;0.75;0.75;;;;;;;16.19;61.13;100111.84;4444847;32;33739;-84
2023/08/11 04:42:47;;;;;;;0.65;0.65;;;;;;;16.44;60.01;100122.44;4442983;32;33923;-86
2023/08/11 04:45:16;;;;;;;0.70;0.70;;;;;;;16.47;59.79;100124.09;4445596;32;33386;-84
2023/08/11 04:47:45;;;;;;;0.73;0.70;;;;;;;16.47;60.29;100126.72;4452357;32;33762;-86
2023/08/11 04:50:15;;;;;;;0.93;0.70;;;;;;;16.59;59.84;100134.22;4444332;32;33315;-86
2023/08/11 04:52:43;;;;;;;1.10;0.80;;;;;;;16.38;61.03;100128.72;4445627;32;33075;-84
2023/08/11 04:55:15;;;;;;;1.83;1.02;;;;;;;16.63;60.14;100135.84;4440647;32;34252;-85
2023/08/11 04:57:44;;;;;;;0.55;0.55;;;;;;;16.63;60.48;100135.84;4447333;32;33171;-84
2023/08/11 05:00:17;;;;;;;0.60;0.60;;;;;;;16.76;60.10;100141.53;4452375;32;34522;-84
2023/08/11 05:02:47;;;;;;;0.95;0.95;;;;;;;16.74;60.54;100136.34;4440615;32;33165;-85
2023/08/11 05:05:17;;;;;;;0.93;0.82;;;;;;;16.95;59.98;100149.72;4431550;32;34110;-87
2023/08/11 05:07:46;;;;;;;0.70;0.70;;;;;;;17.34;58.80;100139.66;4444234;32;33422;-85
2023/08/11 05:10:15;;;;;;;0.55;0.47;;;;;;;18.22;56.37;100142.72;4450766;32;33672;-87
2023/08/11 05:12:45;;;;;;;1.10;0.80;;;;;;;19.32;53.70;100144.50;4445857;32;32914;-85
2023/08/11 05:15:15;;;;;;;0.60;0.60;;;;;;;20.34;50.39;100148.84;4443806;32;34260;-86
2023/08/11 05:17:48;;;;;;;2.23;0.70;;;;;;;21.47;46.11;100150.44;4443913;32;33605;-85
2023/08/11 05:20:18;;;;;;;0.57;0.57;;;;;;;22.02;45.39;100147.56;4443845;32;34435;-84
2023/08/11 05:22:47;;;;;;;0.62;0.62;;;;;;;22.72;43.19;100153.47;4444885;32;33390;-87
2023/08/11 05:25:16;;;;;;;0.60;0.60;;;;;;;23.07;42.82;100163.00;4443362;32;33463;-85
2023/08/11 05:27:47;;;;;;;0.80;0.60;;;;;;;23.49;42.34;100158.81;4444852;32;33902;-85
2023/08/11 05:30:17;;;;;;;0.45;0.45;;;;;;;23.66;40.73;100158.66;4444314;32;34062;-85
2023/08/11 05:32:46;;;;;;;0.30;0.30;;;;;;;23.78;40.63;100159.75;4444617;32;33503;-85
2023/08/11 05:35:15;;;;;;;1.30;0.70;;;;;;;23.80;40.89;100157.81;4442906;32;34223;-86
2023/08/11 05:37:47;;;;;;;0.50;0.50;;;;;;;23.32;41.35;100163.28;4447066;32;33498;-85
2023/08/11 05:40:16;;;;;;;0.80;0.60;;;;;;;;;;4445355;32;34278;-85
2023/08/11 05:42:45;;;;;;;0.85;0.70;;;;;;;23.24;42.15;100157.59;4447148;32;34465;-87
2023/08/11 05:45:13;;;;;;;0.40;0.40;;;;;;;23.03;42.05;100162.34;4451287;32;33882;-85
2023/08/11 05:47:47;;;;;;;1.05;0.50;;;;;;;22.85;42.28;100163.34;4446895;32;31880;-85
2023/08/11 05:50:16;;;;;;;0.40;0.40;;;;;;;22.63;43.04;100163.69;4438424;32;35999;-83
2023/08/11 05:52:44;;;;;;;0.37;0.37;;;;;;;22.49;43.49;100159.16;4444059;32;32897;-85
2023/08/11 05:55:13;;;;;;;1.33;0.55;;;;;;;22.36;43.30;100164.28;4449854;32;34341;-85
2023/08/11 05:57:42;;;;;;;0.60;0.60;;;;;;;22.24;44.11;100160.50;4443885;32;33631;-86
2023/08/11 06:00:12;;;;;;;1.20;0.57;;;;;;;22.19;44.64;100159.88;4441645;32;33495;-85
2023/08/11 06:02:41;;;;;;;0.40;0.40;;;;;;;22.00;44.90;100164.44;4445569;32;32968;-85
2023/08/11 06:05:15;;;;;;;0.37;0.37;;;;;;;21.72;45.85;100176.44;4444452;32;33956;-85
2023/08/11 06:07:43;;;;;;;0.65;0.65;;;;;;;21.36;47.55;100171.22;4436701;32;33188;-85
2023/08/11 06:10:32;;;;;;;0.70;0.50;;;;;;;21.21;47.93;100168.41;4442425;32;33475;-85
2023/08/11 06:13:01;;;;;;;0.62;0.62;;;;;;;20.82;48.93;100177.34;4444670;32;33013;-87
2023/08/11 06:15:30;;;;;;;0.73;0.62;;;;;;;20.65;49.63;100185.19;4444151;32;33830;-85
2023/08/11 06:17:59;;;;;;;1.27;0.70;;;;;;;20.66;49.73;100187.78;4447799;32;33392;-85
2023/08/11 06:20:30;;;;;;;1.55;0.65;;;;;;;20.78;49.84;100188.97;4452512;32;34050;-86
2023/08/11 06:23:09;;;;;;;0.75;0.57;;;;;;;20.62;50.62;100183.56;4446539;32;33300;-84
2023/08/11 06:25:38;;;;;;;1.00;0.88;;;;;;;20.29;51.61;100178.03;4446171;32;33521;-86
2023/08/11 06:28:07;;;;;;;0.70;0.52;;;;;;;20.46;51.83;100180.75;4444132;32;33537;-86
2023/08/11 06:30:37;;;;;;;0.88;0.57;;;;;;;20.50;51.53;100184.09;4448873;32;34712;-85
2023/08/11 06:33:05;;;;;;;0.60;0.45;;;;;;;20.39;51.24;100192.50;4444464;32;32931;-85
2023/08/11 06:35:35;;;;;;;0.73;0.50;;;;;;;20.57;49.89;100189.97;4439408;32;33517;-85
2023/08/11 06:38:05;;;;;;;1.33;0.73;;;;;;;20.45;50.41;100192.22;4443857;32;34226;-85
2023/08/11 06:40:34;;;;;;;0.40;0.40;;;;;;;20.58;50.36;100189.03;4437538;32;33551;-84
2023/08/11 06:43:03;;;;;;;0.88;0.60;;;;;;;20.73;50.64;100185.69;4446308;32;32896;-85
2023/08/11 06:45:33;;;;;;;0.85;0.52;;;;;;;20.45;51.62;100192.22;4439073;32;35597;-85
2023/08/11 06:48:02;;;;;;;0.73;0.50;;;;;;;20.69;51.41;100196.47;4445637;32;34540;-86
2023/08/11 06:50:31;;;;;;;0.45;0.45;;;;;;;20.54;51.16;100192.69;4444286;32;34676;-86
2023/08/11 06:53:01;;;;;;;0.65;0.32;;;;;;;20.79;50.70;100195.09;4449118;32;33643;-85
2023/08/11 06:55:30;;;;;;;1.65;0.93;;;;;;;21.24;50.62;100197.31;4441856;32;36208;-85
2023/08/11 06:57:58;;;;;;;0.37;0.37;;;;;;;21.36;49.84;100206.41;4445729;32;34192;-85
2023/08/11 07:00:27;;;;;;;0.43;0.43;;;;;;;21.42;50.41;100199.97;4446783;32;33470;-85
2023/08/11 07:02:56;;;;;;;0.77;0.50;;;;;;;21.42;50.63;100203.47;4447256;32;33059;-86
2023/08/11 07:05:25;;;;;;;0.88;0.60;;;;;;;21.12;50.15;100204.94;4450531;32;33675;-85
2023/08/11 07:07:54;;;;;;;0.90;0.52;;;;;;;21.29;49.59;100202.34;4445502;32;33676;-85
2023/08/11 07:10:24;;;;;;;1.12;0.70;;;;;;;21.48;50.07;100205.81;4445612;32;33634;-85
2023/08/11 07:12:53;;;;;;;0.37;0.33;;;;;;;21.84;48.60;100206.63;4444340;32;33915;-85
2023/08/11 07:15:22;;;;;;;0.73;0.50;;;;;;;21.65;49.16;100207.59;4448639;32;33440;-85
2023/08/11 07:17:51;;;;;;;0.60;0.40;;;;;;;21.85;49.41;100205.72;4440667;32;34700;-85
2023/08/11 07:20:20;;;;;;;0.90;0.70;;;;;;;22.15;47.87;100201.47;4442584;32;33056;-85
2023/08/11 07:22:49;;;;;;;0.62;0.50;;;;;;;22.18;47.30;100205.75;4431930;32;33420;-84
2023/08/11 07:25:18;;;;;;;0.57;0.47;;;;;;;21.76;49.11;100208.84;4440881;32;34480;-85
2023/08/11 07:27:48;;;;;;;0.55;0.55;;;;;;;22.01;49.49;100204.00;4440179;32;33768;-85
2023/08/11 07:30:17;;;;;;;0.85;0.50;;;;;;;22.19;48.66;100204.81;4438807;32;33002;-84
2023/08/11 07:32:46;;;;;;;0.40;0.40;;;;;;;22.19;48.71;100203.97;4437489;32;33779;-85
2023/08/11 07:35:14;;;;;;;0.98;0.50;;;;;;;22.57;48.28;100200.13;4442119;32;34517;-86
2023/08/11 07:37:44;;;;;;;1.90;0.80;;;;;;;22.63;47.40;100203.37;4440487;32;33743;-84
2023/08/11 07:40:12;;;;;;;0.65;0.65;;;;;;;22.63;46.64;100203.37;4442141;32;33747;-85
2023/08/11 07:42:43;;;;;;;0.90;0.50;;;;;;;22.51;47.80;100202.25;4444336;32;34213;-85
2023/08/11 07:45:14;;;;;;;0.77;0.60;;;;;;;22.44;48.31;100207.00;4432565;32;34338;-86
2023/08/11 07:47:43;;;;;;;0.88;0.70;;;;;;;22.55;47.96;100203.78;4446222;32;32893;-86
2023/08/11 07:50:12;;;;;;;1.05;0.50;;;;;;;22.62;48.58;100214.91;4434564;32;33859;-87
2023/08/11 07:52:41;;;;;;;1.12;0.85;;;;;;;22.72;48.00;100213.44;4441861;32;33542;-86
2023/08/11 07:55:10;;;;;;;0.40;0.40;;;;;;;22.81;46.84;100210.28;4438051;32;33279;-85
2023/08/11 07:57:39;;;;;;;0.57;0.52;;;;;;;22.32;48.33;100220.88;4446694;32;34049;-86
2023/08/11 08:00:16;;;;;;;1.80;0.77;;;;;;;22.73;47.82;100218.62;4440194;32;33532;-86
2023/08/11 08:02:46;;;;;;;0.52;0.52;;;;;;;22.81;47.76;100215.59;4442737;32;32728;-85
2023/08/11 08:05:17;;;;;;;0.75;0.43;;;;;;;22.74;48.32;100220.34;4436717;32;34278;-85
2023/08/11 08:07:46;;;;;;;1.17;0.62;;;;;;;23.09;47.53;100219.34;4436888;32;33870;-87
2023/08/11 08:10:15;;;;;;;1.00;0.65;;;;;;;22.34;47.65;100211.09;4436169;32;33443;-84
2023/08/11 08:12:45;;;;;;;0.98;0.68;;;;;;;22.98;46.96;100223.47;4443474;32;33413;-84
2023/08/11 08:15:16;;;;;;;1.17;0.75;;;;;;;22.76;47.42;100222.91;4439647;32;34277;-85
2023/08/11 08:17:47;;;;;;;0.40;0.40;;;;;;;22.68;48.07;100223.31;4441953;32;34859;-85
2023/08/11 08:20:17;;;;;;;0.65;0.57;;;;;;;22.95;48.25;100228.03;4435380;32;33206;-86
2023/08/11 08:22:45;;;;;;;0.88;0.60;;;;;;;23.06;47.81;100228.31;4444699;32;34237;-85
2023/08/11 08:25:15;;;;;;;0.50;0.50;;;;;;;23.36;47.34;100222.19;4438927;32;34240;-84
2023/08/11 08:27:45;;;;;;;0.82;0.50;;;;;;;23.22;47.49;100228.31;4441104;32;33789;-85
2023/08/11 08:30:14;;;;;;;0.80;0.57;;;;;;;23.12;47.46;100230.63;4444078;32;33611;-84
2023/08/11 08:32:43;;;;;;;1.25;0.80;;;;;;;23.16;47.49;100226.00;4447016;32;33936;-84
2023/08/11 08:35:16;;;;;;;0.62;0.50;;;;;;;22.90;48.08;100225.62;4440805;32;33903;-83
2023/08/11 08:37:44;;;;;;;0.40;0.40;;;;;;;23.23;47.11;100219.41;4443062;32;34133;-85
2023/08/11 08:40:13;;;;;;;1.08;0.60;;;;;;;23.17;47.57;100223.28;4441668;32;34161;-84
2023/08/11 08:42:43;;;;;;;1.37;0.80;;;;;;;23.43;46.89;100226.19;4444199;32;33780;-85
2023/08/11 08:45:11;;;;;;;1.75;0.62;;;;;;;23.39;47.58;100227.34;4447197;32;33465;-84
2023/08/11 08:47:40;;;;;;;0.65;0.60;;;;;;;23.70;47.24;100220.22;4443628;32;33661;-84
2023/08/11 08:50:10;;;;;;;1.02;0.60;;;;;;;23.72;46.48;100213.91;4441372;32;33498;-84
2023/08/11 08:52:40;;;;;;;2.10;0.88;;;;;;;24.02;45.71;100228.94;4436597;32;33120;-83
2023/08/11 08:55:10;;;;;;;0.50;0.50;;;;;;;24.17;44.92;100228.00;4446564;32;34010;-83
2023/08/11 08:57:40;;;;;;;1.42;0.70;;;;;;;23.98;45.50;100227.41;4436004;32;33235;-83
2023/08/11 09:00:09;;;;;;;0.45;0.45;;;;;;;24.07;46.19;100224.22;4444003;32;34592;-83
2023/08/11 09:02:38;;;;;;;0.65;0.62;;;;;;;24.45;44.94;100228.94;4439065;32;33995;-84
2023/08/11 09:05:08;;;;;;;1.37;0.70;;;;;;;24.12;44.86;100216.84;4445013;32;33638;-84
2023/08/11 09:07:37;;;;;;;0.77;0.65;;;;;;;24.48;45.51;100228.81;4446115;32;33826;-84
2023/08/11 09:10:09;;;;;;;0.57;0.35;;;;;;;24.69;45.08;100227.47;4443239;32;34461;-84
2023/08/11 09:12:37;;;;;;;1.05;0.57;;;;;;;24.52;44.86;100232.09;4443059;32;33096;-84
2023/08/11 09:15:08;;;;;;;1.42;0.62;;;;;;;24.56;44.07;100221.22;4441803;32;32592;-83
2023/08/11 09:17:39;;;;;;;1.12;0.98;;;;;;;24.54;44.79;100224.91;4446921;32;33626;-83
2023/08/11 09:20:14;;;;;;;0.75;0.47;;;;;;;24.80;43.93;100220.59;4440997;32;33629;-83
2023/08/11 09:22:42;;;;;;;1.08;0.65;;;;;;;24.78;44.40;100222.50;4444720;32;33107;-84
2023/08/11 09:25:14;;;;;;;0.70;0.62;;;;;;;24.81;43.17;100233.75;4442233;32;33498;-83
2023/08/11 09:27:43;;;;;;;0.90;0.50;;;;;;;24.79;43.65;100226.84;4448214;32;33986;-84
2023/08/11 09:30:14;;;;;;;1.50;0.60;;;;;;;25.12;41.99;100227.31;4452308;32;33842;-84
2023/08/11 09:32:47;;;;;;;0.57;0.57;;;;;;;25.11;42.28;100224.78;4446682;32;32773;-84
2023/08/11 09:35:23;;;;;;;0.45;0.45;;;;;;;25.06;42.44;100224.25;4442866;32;33488;-84
2023/08/11 09:37:53;;;;;;;0.43;0.43;;;;;;;25.19;42.44;100219.00;4446338;32;33573;-84
2023/08/11 09:40:23;;;;;;;2.42;0.68;;;;;;;25.58;42.83;100215.50;4450788;32;34547;-84
2023/08/11 09:42:55;;;;;;;0.65;0.45;;;;;;;25.44;42.28;100218.22;4447236;32;33179;-83
2023/08/11 09:45:24;;;;;;;2.33;1.05;;;;;;;25.46;41.39;100221.62;4445451;32;33732;-83
2023/08/11 09:47:53;;;;;;;0.85;0.57;;;;;;;25.61;40.30;100214.44;4440215;32;32832;-83
2023/08/11 09:50:23;;;;;;;1.33;0.30;;;;;;;25.47;41.39;100218.88;4440013;32;34473;-83
2023/08/11 09:52:53;;;;;;;1.98;1.45;;;;;;;25.65;42.17;100207.97;4444849;32;32456;-84
2023/08/11 09:55:23;;;;;;;0.30;0.30;;;;;;;25.77;40.62;100210.63;4438188;32;33622;-84
2023/08/11 09:57:53;;;;;;;1.23;0.50;;;;;;;25.57;40.43;100212.97;4438563;32;34036;-83
2023/08/11 10:00:22;;;;;;;0.75;0.40;;;;;;;25.51;40.78;100219.50;4439036;32;33622;-85
2023/08/11 10:02:56;;;;;;;0.32;0.32;;;;;;;25.17;41.43;100215.56;4444918;32;33815;-84
2023/08/11 10:05:26;;;;;;;0.62;0.37;;;;;;;25.21;41.46;100217.09;4436795;32;33919;-83
2023/08/11 10:07:59;;;;;;;1.30;0.77;;;;;;;25.78;39.63;100211.47;4436615;32;34343;-83
2023/08/11 10:10:29;;;;;;;1.40;0.70;;;;;;;25.88;40.79;100217.91;4441946;32;33408;-84
2023/08/11 10:13:04;;;;;;;1.60;1.25;;;;;;;25.36;40.92;100215.22;4439114;32;32961;-82
2023/08/11 10:15:35;;;;;;;1.08;0.45;;;;;;;25.27;41.59;100212.25;4448141;32;33613;-84
2023/08/11 10:18:05;;;;;;;0.30;0.30;;;;;;;25.63;40.60;100207.22;4441893;32;33740;-84
2023/08/11 10:20:34;;;;;;;0.80;0.37;;;;;;;25.82;40.95;100212.97;4440131;32;33937;-83
2023/08/11 10:23:04;;;;;;;0.52;0.50;;;;;;;25.98;40.18;100210.16;4436306;32;34110;-84
2023/08/11 10:25:35;;;;;;;0.40;0.40;;;;;;;26.12;39.04;100196.75;4441149;32;34058;-84
2023/08/11 10:28:07;;;;;;;;;;;;;;;25.95;39.10;100205.03;4447470;32;34389;-83
2023/08/11 10:30:37;;;;;;;0.32;0.30;;;;;;;25.77;39.55;100207.97;4444433;32;33819;-83
2023/08/11 10:33:08;;;;;;;0.35;0.30;;;;;;;25.46;40.44;100201.22;4441172;32;32419;-85
2023/08/11 10:35:49;;;;;;;0.40;0.40;;;;;;;25.36;39.74;100201.97;4446432;32;33562;-83
2023/08/11 10:38:24;;;;;;;0.40;0.40;;;;;;;24.92;39.41;100201.25;4437193;32;32594;-83
2023/08/11 10:41:00;;;;;;;1.83;1.08;;;;;;;25.84;38.52;100194.28;4441307;32;33516;-83
2023/08/11 10:43:32;;;;;;;0.30;0.30;;;;;;;26.02;39.33;100192.16;4440298;32;34202;-83
2023/08/11 10:46:19;;;;;;;0.70;0.47;;;;;;;26.14;38.23;100191.31;4439475;32;33416;-83
2023/08/11 10:48:47;;;;;;;0.50;0.50;;;;;;;25.60;37.53;100197.66;4433266;32;33684;-83
2023/08/11 10:51:25;;;;;;;0.30;0.30;;;;;;;26.02;37.45;100186.84;4443209;32;34026;-84
2023/08/11 10:53:55;;;;;;;0.50;0.50;;;;;;;26.03;38.66;100183.25;4441553;32;33568;-84
2023/08/11 10:56:28;;;;;;;;;;;;;;;25.85;38.85;100190.66;4432377;32;33278;-83
2023/08/11 10:59:08;;;;;;;0.45;0.40;;;;;;;25.87;38.17;100188.78;4440760;32;32957;-83
2023/08/11 11:01:38;;;;;;;0.20;0.20;;;;;;;25.58;38.56;100190.72;4437297;32;33622;-84
2023/08/11 11:04:09;;;;;;;2.03;0.90;;;;;;;25.70;39.43;100192.56;4443849;32;34097;-85
2023/08/11 11:06:39;;;;;;;0.52;0.40;;;;;;;25.65;38.78;100186.72;4441742;32;34338;-83
2023/08/11 11:09:08;;;;;;;1.52;0.52;;;;;;;25.50;39.74;100196.56;4446172;32;33193;-84
2023/08/11 11:11:38;;;;;;;0.57;0.40;;;;;;;25.44;38.73;100189.87;4440911;32;33703;-83
2023/08/11 11:14:08;;;;;;;;;;;;;;;25.93;35.27;100189.22;4440053;32;33176;-84
2023/08/11 11:16:37;;;;;;;0.30;0.30;;;;;;;25.45;35.22;100175.63;4443365;32;32617;-84
2023/08/11 11:19:07;;;;;;;0.90;0.43;;;;;;;26.38;34.83;100189.56;4435927;32;32832;-84
2023/08/11 11:21:38;;;;;;;0.75;0.52;;;;;;;26.49;33.58;100180.00;4440799;32;33968;-84
2023/08/11 11:24:08;;;;;;;5.00;1.90;;;;;;;26.50;33.94;100174.53;4439720;32;32836;-83
2023/08/11 11:26:38;;;;;;;0.27;0.27;;;;;;;26.47;37.50;100181.91;4445539;32;34741;-83
2023/08/11 11:29:07;;;;;;;0.75;0.45;;;;;;;26.44;37.76;100182.13;4447154;32;34684;-84
2023/08/11 11:31:38;;;;;;;0.98;0.73;;;;;;;26.33;37.14;100180.22;4443719;32;33979;-83
2023/08/11 11:34:07;;;;;;;0.47;0.40;;;;;;;26.07;36.06;100182.06;4445943;32;32954;-84
2023/08/11 11:36:36;;;;;;;1.17;0.40;;;;;;;25.65;36.94;100184.91;4441530;32;34208;-84
2023/08/11 11:39:08;;;;;;;0.30;0.30;;;;;;;26.30;36.84;100185.78;4450097;32;34301;-83